Time;durP1;ratioP1;P1;durP2;ratioP2;P2;SDS_P1;SDS_P2;PMS_P1;PMS_P2;Temp;Humidity;BMP_temperature;BMP_pressure;BME280_temperature;BME280_humidity;BME280_pressure;Samples;Min_cycle;Max_cycle;Signal;HPM_P1;HPM_P2
2022/07/24 00:01:00;;;;;;;4.43;3.90;;;;;;;22.35;51.27;100410.66;4971339;28;20261;-67
2022/07/24 00:03:26;;;;;;;4.70;4.10;;;;;;;22.42;51.22;100413.53;4982074;28;20639;-67
2022/07/24 00:05:52;;;;;;;5.50;3.77;;;;;;;22.38;51.07;100406.94;4974007;28;20196;-67
2022/07/24 00:08:18;;;;;;;4.33;3.90;;;;;;;22.37;51.25;100405.25;4974006;28;20713;-67
2022/07/24 00:10:44;;;;;;;6.47;3.97;;;;;;;22.35;51.03;100407.22;4962539;28;20244;-67
2022/07/24 00:13:09;;;;;;;5.63;3.87;;;;;;;22.32;51.38;100416.19;4976901;28;20208;-67
2022/07/24 00:15:34;;;;;;;4.90;4.03;;;;;;;22.00;52.23;100409.72;4973698;28;20204;-67
2022/07/24 00:17:59;;;;;;;4.13;3.73;;;;;;;22.08;52.62;100415.03;4974112;28;20184;-67
2022/07/24 00:20:25;;;;;;;4.27;3.70;;;;;;;22.21;52.51;100409.41;4966469;28;20231;-67
2022/07/24 00:22:50;;;;;;;4.23;3.70;;;;;;;22.16;52.27;100411.66;4977553;28;20184;-67
2022/07/24 00:25:16;;;;;;;3.57;3.27;;;;;;;22.22;52.05;100407.63;4968144;28;20544;-67
2022/07/24 00:27:41;;;;;;;6.43;3.90;;;;;;;22.16;52.07;100405.59;4973618;28;20286;-67
2022/07/24 00:30:07;;;;;;;5.20;3.77;;;;;;;22.03;51.89;100405.97;4963216;28;20183;-67
2022/07/24 00:32:32;;;;;;;6.47;3.93;;;;;;;21.90;52.70;100401.13;4984222;28;20217;-67
2022/07/24 00:34:58;;;;;;;5.20;3.67;;;;;;;21.92;52.75;100407.88;4964314;28;20223;-67
2022/07/24 00:37:23;;;;;;;4.47;3.60;;;;;;;22.01;52.30;100406.13;4973641;28;20219;-67
2022/07/24 00:39:49;;;;;;;3.80;3.10;;;;;;;22.11;52.06;100403.44;4973573;28;20231;-67
2022/07/24 00:42:14;;;;;;;4.17;3.70;;;;;;;22.13;52.63;100404.13;4964019;28;20219;-68
2022/07/24 00:44:39;;;;;;;5.23;3.47;;;;;;;22.23;51.61;100401.41;4972243;28;20172;-67
2022/07/24 00:47:05;;;;;;;6.77;3.60;;;;;;;22.21;52.28;100391.06;4973821;28;20219;-67
2022/07/24 00:49:30;;;;;;;5.73;3.37;;;;;;;22.18;52.38;100395.81;4973502;28;20180;-67
2022/07/24 00:51:55;;;;;;;5.23;3.63;;;;;;;22.02;52.89;100397.31;4969293;28;20539;-67
2022/07/24 00:54:21;;;;;;;4.27;3.30;;;;;;;22.09;52.96;100389.66;4978310;28;20220;-67
2022/07/24 00:56:49;;;;;;;4.57;3.43;;;;;;;22.13;52.60;100396.25;4992572;28;20286;-67
2022/07/24 00:59:15;;;;;;;3.83;3.40;;;;;;;21.93;53.20;100385.94;4977227;28;20191;-68
2022/07/24 01:01:41;;;;;;;4.37;3.30;;;;;;;21.90;53.60;100391.47;4969759;28;20377;-67
2022/07/24 01:04:07;;;;;;;6.23;3.67;;;;;;;22.01;53.08;100392.22;4980147;28;20267;-67
2022/07/24 01:06:32;;;;;;;4.07;3.67;;;;;;;21.90;53.19;100388.84;4976080;28;20620;-67
2022/07/24 01:08:58;;;;;;;5.00;3.00;;;;;;;21.87;53.58;100386.53;4977586;28;20247;-67
2022/07/24 01:11:24;;;;;;;4.83;3.40;;;;;;;21.73;54.00;100393.13;4957571;28;20231;-67
2022/07/24 01:13:50;;;;;;;4.73;3.33;;;;;;;21.76;53.95;100384.97;4980205;28;20175;-67
2022/07/24 01:16:17;;;;;;;3.90;3.40;;;;;;;21.51;54.56;100389.13;4976157;28;20693;-67
2022/07/24 01:18:42;;;;;;;5.90;3.50;;;;;;;21.59;54.15;100385.78;4977211;28;20372;-67
2022/07/24 01:21:08;;;;;;;3.33;3.03;;;;;;;21.57;54.46;100388.56;4975525;28;20247;-67
2022/07/24 01:23:34;;;;;;;6.17;3.23;;;;;;;21.57;54.80;100377.25;4983540;28;20184;-68
2022/07/24 01:25:59;;;;;;;4.80;3.17;;;;;;;21.60;54.50;100390.06;4975456;28;20180;-67
2022/07/24 01:28:25;;;;;;;3.80;3.10;;;;;;;21.64;54.62;100387.97;4976656;28;20196;-67
2022/07/24 01:30:50;;;;;;;5.63;3.40;;;;;;;21.62;54.00;100393.38;4972719;28;20301;-67
2022/07/24 01:33:16;;;;;;;5.47;3.50;;;;;;;21.59;53.88;100386.63;4975783;28;20187;-67
2022/07/24 01:35:42;;;;;;;4.90;3.23;;;;;;;21.47;54.51;100392.19;4976777;28;20247;-67
2022/07/24 01:38:09;;;;;;;3.97;3.47;;;;;;;21.44;54.62;100390.69;4975611;28;20191;-68
2022/07/24 01:40:34;;;;;;;3.30;3.00;;;;;;;21.63;54.23;100394.97;4968696;28;20235;-68
2022/07/24 01:43:00;;;;;;;3.90;3.00;;;;;;;21.70;54.06;100396.03;4987920;28;20607;-67
2022/07/24 01:45:25;;;;;;;3.90;2.63;;;;;;;21.74;54.16;100394.78;4976829;28;20180;-67
2022/07/24 01:47:50;;;;;;;3.10;2.80;;;;;;;21.50;54.16;100386.66;4975327;28;20176;-67
2022/07/24 01:50:16;;;;;;;3.77;3.23;;;;;;;21.43;54.86;100391.66;4967776;28;20246;-67
2022/07/24 01:52:41;;;;;;;3.73;3.37;;;;;;;21.33;55.20;100391.72;4991097;28;20354;-67
2022/07/24 01:55:07;;;;;;;5.67;3.23;;;;;;;21.42;55.17;100387.38;4976281;28;20195;-67
2022/07/24 01:57:33;;;;;;;4.77;3.13;;;;;;;21.48;54.65;100397.25;4976006;28;20184;-68
2022/07/24 01:59:59;;;;;;;3.53;3.10;;;;;;;21.44;54.90;100391.50;4974326;28;20282;-67
2022/07/24 02:02:25;;;;;;;4.30;3.00;;;;;;;21.35;54.97;100396.81;4981348;28;20311;-67
2022/07/24 02:04:51;;;;;;;4.00;3.00;;;;;;;21.50;54.98;100392.72;4976018;28;20215;-67
2022/07/24 02:07:16;;;;;;;5.23;3.23;;;;;;;21.48;55.52;100391.22;4975092;28;20200;-67
2022/07/24 02:09:42;;;;;;;4.33;3.27;;;;;;;21.36;55.34;100395.81;4975938;28;20239;-67
2022/07/24 02:12:07;;;;;;;4.00;3.00;;;;;;;21.18;55.69;100388.75;4969740;28;20310;-67
2022/07/24 02:14:32;;;;;;;3.30;3.00;;;;;;;21.19;56.81;100384.38;4976364;28;20551;-67
2022/07/24 02:16:58;;;;;;;3.03;2.83;;;;;;;21.12;56.84;100391.97;4976091;28;20192;-67
2022/07/24 02:19:24;;;;;;;5.37;3.27;;;;;;;21.08;56.52;100380.16;4974153;28;20543;-67
2022/07/24 02:21:49;;;;;;;4.13;2.80;;;;;;;21.04;57.12;100392.69;4979304;28;20317;-68
2022/07/24 02:24:14;;;;;;;3.60;2.93;;;;;;;21.08;57.15;100385.38;4977387;28;20223;-67
2022/07/24 02:26:40;;;;;;;3.73;2.97;;;;;;;21.05;57.85;100385.66;4975599;28;20188;-67
2022/07/24 02:29:05;;;;;;;7.07;2.87;;;;;;;20.98;58.39;100382.81;4975311;28;20184;-67
2022/07/24 02:31:30;;;;;;;3.30;3.00;;;;;;;20.93;59.52;100387.66;4977151;28;20231;-67
2022/07/24 02:33:56;;;;;;;5.77;3.77;;;;;;;20.85;61.30;100388.38;4979541;28;20654;-67
2022/07/24 02:36:22;;;;;;;5.90;3.60;;;;;;;20.61;62.54;100387.03;4975784;28;20191;-67
2022/07/24 02:38:47;;;;;;;7.23;3.33;;;;;;;20.46;63.47;100388.47;4975590;28;20207;-67
2022/07/24 02:41:12;;;;;;;3.73;3.43;;;;;;;20.42;63.38;100392.31;4974166;28;20322;-67
2022/07/24 02:43:38;;;;;;;4.43;3.43;;;;;;;20.30;64.10;100395.09;4981486;28;20184;-67
2022/07/24 02:46:03;;;;;;;6.70;3.63;;;;;;;20.14;64.24;100395.66;4989752;28;20339;-67
2022/07/24 02:48:29;;;;;;;3.90;3.57;;;;;;;20.09;64.78;100395.22;4975288;28;20184;-67
2022/07/24 02:50:54;;;;;;;5.00;3.43;;;;;;;20.04;65.14;100389.59;4971521;28;20246;-67
2022/07/24 02:53:20;;;;;;;7.77;3.70;;;;;;;20.02;65.95;100394.16;4973548;28;20180;-67
2022/07/24 02:55:45;;;;;;;4.10;3.70;;;;;;;19.96;66.53;100392.09;4974826;28;20278;-67
2022/07/24 02:58:11;;;;;;;5.10;4.17;;;;;;;19.88;67.07;100395.38;4973181;28;20256;-67
2022/07/24 03:00:36;;;;;;;5.43;4.07;;;;;;;19.80;67.39;100396.03;4959598;28;20254;-67
2022/07/24 03:03:02;;;;;;;5.73;3.33;;;;;;;19.66;67.68;100388.63;4985356;28;20192;-67
2022/07/24 03:05:27;;;;;;;6.43;3.93;;;;;;;19.66;67.79;100393.84;4973256;28;20223;-67
2022/07/24 03:07:53;;;;;;;6.00;3.87;;;;;;;19.60;68.18;100389.16;4974597;28;20532;-67
2022/07/24 03:10:18;;;;;;;4.93;3.97;;;;;;;19.50;68.96;100394.38;4961653;28;20322;-67
2022/07/24 03:12:44;;;;;;;4.80;3.70;;;;;;;19.45;69.21;100397.38;4976566;28;20238;-67
2022/07/24 03:15:11;;;;;;;4.30;3.90;;;;;;;19.33;69.62;100388.81;4965079;28;20545;-67
2022/07/24 03:17:36;;;;;;;4.03;3.60;;;;;;;19.32;70.69;100392.38;4988407;28;20188;-67
2022/07/24 03:20:03;;;;;;;4.73;3.97;;;;;;;19.34;70.19;100392.28;4974170;28;20212;-67
2022/07/24 03:22:28;;;;;;;4.17;3.60;;;;;;;19.27;70.20;100396.38;4979073;28;20220;-67
2022/07/24 03:24:53;;;;;;;4.57;4.03;;;;;;;19.23;70.53;100400.22;4973099;28;20553;-67
2022/07/24 03:27:19;;;;;;;5.20;4.20;;;;;;;19.18;70.58;100409.22;4974286;28;20192;-67
2022/07/24 03:29:45;;;;;;;4.90;4.50;;;;;;;19.10;70.86;100401.25;4974551;28;20176;-67
2022/07/24 03:32:10;;;;;;;4.23;3.80;;;;;;;19.01;71.83;100407.25;4960089;28;20231;-67
2022/07/24 03:34:35;;;;;;;4.83;4.37;;;;;;;18.97;72.64;100398.88;4972884;28;20554;-67
2022/07/24 03:37:00;;;;;;;4.17;3.80;;;;;;;18.96;72.37;100399.81;4972833;28;20203;-67
2022/07/24 03:39:26;;;;;;;4.13;3.77;;;;;;;18.90;72.71;100413.34;4973279;28;20207;-67
2022/07/24 03:41:51;;;;;;;4.80;4.40;;;;;;;18.88;72.74;100405.66;4965914;28;20682;-67
2022/07/24 03:44:16;;;;;;;4.60;4.20;;;;;;;18.82;73.56;100408.78;4975411;28;20723;-67
2022/07/24 03:46:42;;;;;;;8.03;4.53;;;;;;;18.82;73.11;100403.56;4989119;28;20635;-67
2022/07/24 03:49:07;;;;;;;5.30;4.07;;;;;;;18.81;73.72;100411.53;4988841;28;20276;-67
2022/07/24 03:51:34;;;;;;;3.97;3.67;;;;;;;18.83;72.84;100405.22;4975677;28;20302;-68
2022/07/24 03:54:01;;;;;;;4.43;4.03;;;;;;;18.82;72.99;100415.78;4977355;28;20743;-67
2022/07/24 03:56:27;;;;;;;4.90;3.50;;;;;;;18.78;73.55;100404.78;4973764;28;20192;-67
2022/07/24 03:58:53;;;;;;;4.37;3.80;;;;;;;18.76;73.87;100401.47;4988785;28;20225;-67
2022/07/24 04:01:18;;;;;;;4.67;4.23;;;;;;;18.70;74.66;100405.44;4973431;28;20714;-67
2022/07/24 04:03:43;;;;;;;5.20;4.43;;;;;;;18.76;74.15;100405.88;4979261;28;20180;-67
2022/07/24 04:06:09;;;;;;;5.70;4.20;;;;;;;18.76;74.41;100409.31;4971993;28;20298;-67
2022/07/24 04:08:34;;;;;;;7.83;4.00;;;;;;;18.75;74.20;100405.03;4972857;28;20231;-67
2022/07/24 04:10:59;;;;;;;4.70;4.30;;;;;;;18.79;74.05;100410.81;4956796;28;20223;-67
2022/07/24 04:13:29;;;;;;;4.20;3.80;;;;;;;18.81;73.97;100403.72;4976535;28;20184;-67
2022/07/24 04:15:55;;;;;;;4.20;3.83;;;;;;;18.87;73.77;100409.22;4988416;28;20263;-67
2022/07/24 04:18:24;;;;;;;4.87;4.43;;;;;;;18.91;74.08;100412.41;4988288;28;20606;-67
2022/07/24 04:20:49;;;;;;;4.97;4.03;;;;;;;18.95;74.64;100410.38;4981241;28;20294;-67
2022/07/24 04:23:15;;;;;;;5.40;4.50;;;;;;;19.01;74.46;100415.91;4971879;28;20270;-67
2022/07/24 04:25:41;;;;;;;5.20;4.20;;;;;;;19.09;73.03;100415.25;4972375;28;20230;-67
2022/07/24 04:28:06;;;;;;;5.77;4.30;;;;;;;19.09;73.51;100402.22;4973388;28;20184;-67
2022/07/24 04:30:31;;;;;;;4.77;3.73;;;;;;;19.14;73.59;100412.25;4967238;28;20226;-67
2022/07/24 04:32:57;;;;;;;6.47;5.00;;;;;;;19.20;73.37;100409.09;4972185;28;20934;-67
2022/07/24 04:35:23;;;;;;;6.60;3.83;;;;;;;19.17;73.92;100414.59;4973222;28;20184;-67
2022/07/24 04:37:48;;;;;;;4.20;3.80;;;;;;;19.30;73.20;100407.34;4972984;28;20188;-67
2022/07/24 04:40:14;;;;;;;6.17;4.63;;;;;;;19.45;72.80;100412.19;4964119;28;20195;-67
2022/07/24 04:42:39;;;;;;;4.53;4.03;;;;;;;19.52;71.08;100406.31;4986608;28;20176;-67
2022/07/24 04:45:07;;;;;;;7.27;4.30;;;;;;;19.65;70.17;100405.25;4973265;28;20172;-67
2022/07/24 04:47:33;;;;;;;6.27;4.27;;;;;;;19.72;69.65;100403.75;4971833;28;20266;-67
2022/07/24 04:49:58;;;;;;;5.10;4.07;;;;;;;19.83;69.64;100401.03;4973187;28;20211;-67
2022/07/24 04:52:24;;;;;;;4.47;3.97;;;;;;;19.97;68.70;100405.00;4962614;28;20231;-68
2022/07/24 04:54:49;;;;;;;4.63;4.23;;;;;;;20.07;68.82;100410.25;4971439;28;20184;-67
2022/07/24 04:57:14;;;;;;;4.67;4.17;;;;;;;20.26;67.61;100406.78;4973214;28;20276;-67
2022/07/24 04:59:40;;;;;;;3.83;3.53;;;;;;;20.41;65.96;100412.38;4987955;28;20231;-67
2022/07/24 05:02:05;;;;;;;4.13;3.83;;;;;;;20.63;64.38;100407.81;4978567;28;20332;-67
2022/07/24 05:04:30;;;;;;;6.07;4.70;;;;;;;20.69;65.68;100406.41;4971502;28;20750;-67
2022/07/24 05:06:56;;;;;;;4.10;3.70;;;;;;;20.92;65.14;100415.56;4971786;28;20589;-68
2022/07/24 05:09:21;;;;;;;5.67;4.30;;;;;;;21.15;65.43;100415.22;4971982;28;20256;-67
2022/07/24 05:11:46;;;;;;;8.03;4.33;;;;;;;21.17;65.10;100412.47;4950961;28;20687;-68
2022/07/24 05:14:12;;;;;;;4.93;4.03;;;;;;;21.19;65.06;100421.00;4974596;28;20263;-67
2022/07/24 05:16:37;;;;;;;4.87;3.80;;;;;;;21.28;61.62;100415.72;4973069;28;20674;-67
2022/07/24 05:19:03;;;;;;;7.17;4.40;;;;;;;21.36;62.61;100414.97;4973068;28;20200;-67
2022/07/24 05:21:28;;;;;;;5.33;4.10;;;;;;;21.61;62.13;100412.66;4965111;28;20227;-67
2022/07/24 05:23:54;;;;;;;5.40;4.47;;;;;;;21.82;58.82;100407.13;4977111;28;20215;-67
2022/07/24 05:26:19;;;;;;;5.50;4.20;;;;;;;21.93;58.24;100412.13;4972905;28;20370;-67
2022/07/24 05:28:45;;;;;;;4.20;3.80;;;;;;;22.08;57.24;100409.81;4972042;28;20184;-67
2022/07/24 05:31:10;;;;;;;4.67;4.00;;;;;;;22.14;57.33;100415.41;4971473;28;20227;-67
2022/07/24 05:33:35;;;;;;;4.33;3.93;;;;;;;22.28;56.52;100420.09;4979087;28;20553;-68
2022/07/24 05:36:01;;;;;;;5.33;4.80;;;;;;;22.28;56.94;100419.28;4971087;28;20208;-67
2022/07/24 05:38:26;;;;;;;5.73;4.10;;;;;;;22.18;57.43;100425.44;4976211;28;20222;-67
2022/07/24 05:40:51;;;;;;;9.00;5.17;;;;;;;22.22;57.29;100420.72;4967548;28;20230;-67
2022/07/24 05:43:17;;;;;;;5.00;4.50;;;;;;;22.20;57.46;100420.03;4984882;28;20192;-68
2022/07/24 05:45:43;;;;;;;5.03;4.30;;;;;;;22.33;59.54;100424.91;4975893;28;20275;-68
2022/07/24 05:48:08;;;;;;;7.53;5.03;;;;;;;22.28;58.91;100422.72;4976569;28;20196;-67
2022/07/24 05:50:33;;;;;;;7.47;4.43;;;;;;;22.58;56.84;100423.28;4970237;28;20694;-68
2022/07/24 05:52:59;;;;;;;6.77;5.10;;;;;;;22.87;56.27;100424.75;4974309;28;20188;-68
2022/07/24 05:55:24;;;;;;;7.03;4.67;;;;;;;23.11;55.42;100426.69;4975786;28;20191;-68
2022/07/24 05:57:49;;;;;;;4.77;4.37;;;;;;;23.30;54.81;100419.56;4974434;28;20267;-67
2022/07/24 06:00:18;;;;;;;5.20;4.70;;;;;;;23.30;55.58;100435.31;4965598;28;20215;-68
2022/07/24 06:02:45;;;;;;;7.37;4.77;;;;;;;23.68;53.66;100430.50;4988586;28;20196;-67
2022/07/24 06:05:11;;;;;;;7.00;4.70;;;;;;;23.65;52.17;100422.94;4976340;28;20195;-67
2022/07/24 06:07:36;;;;;;;5.50;4.20;;;;;;;23.93;52.29;100438.44;4975831;28;20710;-69
2022/07/24 06:10:02;;;;;;;6.77;4.67;;;;;;;23.81;51.20;100425.56;4974574;28;20222;-67
2022/07/24 06:12:28;;;;;;;5.33;4.70;;;;;;;24.01;51.05;100423.50;4968448;28;20686;-68
2022/07/24 06:14:53;;;;;;;5.77;4.00;;;;;;;24.18;49.40;100426.94;4976033;28;20202;-68
2022/07/24 06:17:18;;;;;;;3.93;3.50;;;;;;;24.19;48.51;100425.13;4974424;28;20176;-68
2022/07/24 06:19:44;;;;;;;3.70;3.30;;;;;;;24.34;47.96;100426.09;4975538;28;20207;-67
2022/07/24 06:22:09;;;;;;;4.17;3.20;;;;;;;24.23;47.93;100425.63;4965859;28;20230;-67
2022/07/24 06:24:34;;;;;;;4.27;3.13;;;;;;;23.68;47.11;100414.75;4975798;28;20271;-67
2022/07/24 06:27:00;;;;;;;7.30;3.77;;;;;;;23.49;48.08;100411.41;4975587;28;20262;-67
2022/07/24 06:29:25;;;;;;;4.90;3.27;;;;;;;23.51;47.44;100411.25;4973800;28;20627;-67
2022/07/24 06:31:50;;;;;;;3.17;2.87;;;;;;;23.76;46.83;100408.66;4978826;28;20289;-67
2022/07/24 06:34:16;;;;;;;4.00;2.90;;;;;;;23.97;46.87;100421.34;4976554;28;20197;-67
2022/07/24 06:36:41;;;;;;;3.83;2.50;;;;;;;24.10;45.85;100416.44;4975303;28;20184;-68
2022/07/24 06:39:06;;;;;;;5.17;3.03;;;;;;;24.42;44.80;100425.28;4975179;28;20241;-69
2022/07/24 06:41:32;;;;;;;4.53;3.10;;;;;;;24.52;44.53;100419.81;4983059;28;20229;-68
2022/07/24 06:43:59;;;;;;;4.13;3.00;;;;;;;25.11;42.71;100411.59;4979096;28;20191;-66
2022/07/24 06:46:24;;;;;;;4.10;3.00;;;;;;;25.62;41.46;100410.38;4975518;28;20191;-66
2022/07/24 06:48:50;;;;;;;3.23;2.93;;;;;;;26.30;39.76;100413.16;4974624;28;20192;-66
2022/07/24 06:51:17;;;;;;;3.17;2.87;;;;;;;26.95;38.68;100402.91;4967091;28;20691;-67
2022/07/24 06:53:44;;;;;;;6.40;2.70;;;;;;;28.22;36.24;100410.50;4981005;28;20188;-67
2022/07/24 06:56:09;;;;;;;3.45;2.95;;;;;;;28.17;35.83;100416.38;4975104;28;20236;-67
2022/07/24 06:58:34;;;;;;;3.60;2.50;;;;;;;28.00;36.44;100416.59;4973916;28;20577;-67
2022/07/24 07:00:59;;;;;;;2.85;2.50;;;;;;;28.24;35.12;100408.47;4954245;28;20263;-68
2022/07/24 07:03:25;;;;;;;3.15;2.83;;;;;;;28.77;34.57;100413.31;4974187;28;20519;-68
2022/07/24 07:05:50;;;;;;;3.05;2.58;;;;;;;29.45;33.72;100420.50;4975073;28;20214;-67
2022/07/24 07:08:15;;;;;;;5.47;2.55;;;;;;;29.00;34.17;100413.00;4974095;28;20458;-67
2022/07/24 07:10:41;;;;;;;4.53;2.42;;;;;;;29.57;33.50;100418.06;4966040;28;20228;-67
2022/07/24 07:13:06;;;;;;;2.83;2.40;;;;;;;30.95;31.32;100416.53;4985268;28;20231;-67
2022/07/24 07:15:31;;;;;;;5.32;2.88;;;;;;;30.55;31.07;100416.66;4968649;28;20306;-67
2022/07/24 07:17:57;;;;;;;3.00;2.47;;;;;;;30.41;31.57;100424.59;4986150;28;20228;-67
2022/07/24 07:20:22;;;;;;;3.28;2.78;;;;;;;29.27;32.98;100419.22;4966052;28;20310;-67
2022/07/24 07:22:47;;;;;;;3.83;2.60;;;;;;;29.27;33.23;100418.38;4986886;28;20643;-67
2022/07/24 07:25:13;;;;;;;4.47;2.80;;;;;;;30.38;31.50;100422.38;4974841;28;20192;-67
2022/07/24 07:27:39;;;;;;;3.75;2.47;;;;;;;31.58;29.54;100425.63;4974498;28;20548;-67
2022/07/24 07:30:05;;;;;;;3.38;2.30;;;;;;;33.31;27.21;100430.25;4960190;28;20192;-67
2022/07/24 07:32:31;;;;;;;4.03;2.40;;;;;;;33.59;26.87;100442.19;4979606;28;20227;-67
2022/07/24 07:34:56;;;;;;;3.78;2.55;;;;;;;33.14;26.76;100437.25;4973009;28;20188;-67
2022/07/24 07:37:22;;;;;;;6.35;2.60;;;;;;;32.01;28.48;100426.75;4989078;28;20180;-67
2022/07/24 07:39:47;;;;;;;2.70;2.50;;;;;;;33.44;26.42;100441.78;4974296;28;20231;-67
2022/07/24 07:42:13;;;;;;;2.85;2.55;;;;;;;34.77;24.77;100434.41;4979478;28;20238;-67
2022/07/24 07:44:38;;;;;;;4.00;2.80;;;;;;;33.38;25.87;100442.69;4974156;28;20308;-67
2022/07/24 07:47:03;;;;;;;6.97;2.85;;;;;;;33.80;25.51;100432.00;4973029;28;20552;-67
2022/07/24 07:49:29;;;;;;;4.40;2.88;;;;;;;33.95;25.97;100440.41;4972194;28;20176;-67
2022/07/24 07:51:54;;;;;;;3.15;2.53;;;;;;;33.79;25.38;100435.72;4981981;28;20242;-68
2022/07/24 07:54:20;;;;;;;3.22;2.80;;;;;;;34.84;24.93;100427.88;4972880;28;20211;-67
2022/07/24 07:56:45;;;;;;;4.13;2.50;;;;;;;35.57;23.94;100427.38;4972909;28;20180;-67
2022/07/24 07:59:11;;;;;;;5.07;2.70;;;;;;;36.51;23.05;100427.69;4973248;28;20208;-67
2022/07/24 08:01:36;;;;;;;4.57;2.85;;;;;;;34.90;24.74;100431.50;4975609;28;20350;-67
2022/07/24 08:04:02;;;;;;;3.75;2.80;;;;;;;35.48;24.20;100439.53;4972259;28;20184;-67
2022/07/24 08:06:27;;;;;;;5.57;2.83;;;;;;;34.53;25.79;100434.47;4972126;28;20219;-67
2022/07/24 08:08:53;;;;;;;3.47;3.00;;;;;;;36.98;23.08;100440.59;4974051;28;20239;-67
2022/07/24 08:11:18;;;;;;;6.28;2.92;;;;;;;38.12;20.57;100446.94;4962123;28;20240;-68
2022/07/24 08:13:45;;;;;;;7.10;2.65;;;;;;;37.26;21.89;100446.78;4977011;28;20176;-68
2022/07/24 08:16:11;;;;;;;4.18;2.70;;;;;;;36.05;23.42;100441.25;4972571;28;20180;-67
2022/07/24 08:18:36;;;;;;;9.48;3.00;;;;;;;36.35;22.88;100426.66;4988430;28;20180;-67
2022/07/24 08:21:01;;;;;;;3.00;2.65;;;;;;;38.32;21.63;100434.69;4965299;28;20662;-68
2022/07/24 08:23:27;;;;;;;4.13;2.45;;;;;;;38.46;20.56;100438.53;4981103;28;20548;-68
2022/07/24 08:25:52;;;;;;;3.83;2.70;;;;;;;36.97;21.68;100427.44;4972356;28;20259;-67
2022/07/24 08:28:17;;;;;;;5.53;2.80;;;;;;;36.90;21.96;100435.66;4973293;28;20793;-68
2022/07/24 08:30:43;;;;;;;5.82;2.92;;;;;;;37.36;20.95;100434.53;4964583;28;20281;-67
2022/07/24 08:33:09;;;;;;;5.30;3.13;;;;;;;37.43;21.51;100427.09;4974381;28;20259;-67
2022/07/24 08:35:34;;;;;;;4.45;2.80;;;;;;;37.86;20.73;100424.47;4968461;28;20208;-67
2022/07/24 08:38:00;;;;;;;2.88;2.67;;;;;;;38.43;20.23;100423.75;4973712;28;20191;-67
2022/07/24 08:40:25;;;;;;;8.35;2.80;;;;;;;38.57;19.63;100424.06;4966410;28;20235;-67
2022/07/24 08:42:51;;;;;;;6.82;3.05;;;;;;;36.90;21.76;100416.09;4985532;28;20187;-67
2022/07/24 08:45:16;;;;;;;5.55;3.03;;;;;;;37.56;21.38;100432.03;4973501;28;20179;-67
2022/07/24 08:47:41;;;;;;;2.83;2.63;;;;;;;38.32;19.89;100421.28;4973315;28;20222;-68
2022/07/24 08:50:08;;;;;;;6.50;3.20;;;;;;;35.86;22.70;100414.72;4962619;28;20646;-67
2022/07/24 08:52:38;;;;;;;3.22;2.65;;;;;;;35.94;22.61;100415.41;4972167;28;20595;-68
2022/07/24 08:55:04;;;;;;;6.25;3.15;;;;;;;35.36;23.66;100416.28;4972225;28;20180;-67
2022/07/24 08:57:29;;;;;;;8.20;2.88;;;;;;;35.66;23.28;100409.88;4973313;28;20647;-67
2022/07/24 08:59:55;;;;;;;6.43;2.95;;;;;;;36.95;22.40;100413.47;4972981;28;20203;-67
2022/07/24 09:02:20;;;;;;;5.13;3.40;;;;;;;36.93;21.59;100418.31;4978144;28;20310;-67
2022/07/24 09:04:48;;;;;;;5.28;2.95;;;;;;;36.94;21.50;100412.69;4972810;28;20225;-68
2022/07/24 09:07:18;;;;;;;5.57;2.85;;;;;;;37.10;21.42;100410.97;4973430;28;20282;-68
2022/07/24 09:09:56;;;;;;;3.53;2.95;;;;;;;36.72;21.84;100411.84;4971889;28;20227;-68
2022/07/24 09:12:22;;;;;;;7.07;3.65;;;;;;;36.36;21.93;100409.53;4967511;28;20227;-68
2022/07/24 09:14:48;;;;;;;4.45;2.90;;;;;;;36.81;22.05;100408.47;4977208;28;20191;-67
2022/07/24 09:17:16;;;;;;;3.20;2.90;;;;;;;37.02;21.91;100415.97;4976986;28;20196;-67
2022/07/24 09:19:58;;;;;;;7.57;3.38;;;;;;;35.77;22.93;100407.34;4976532;28;20611;-67
2022/07/24 09:22:33;;;;;;;4.40;3.05;;;;;;;36.85;22.30;100405.31;4982383;28;20324;-67
2022/07/24 09:25:10;;;;;;;3.55;3.22;;;;;;;38.02;20.48;100406.59;4975807;28;20184;-67
2022/07/24 09:27:37;;;;;;;3.33;3.05;;;;;;;38.05;20.63;100406.88;4975373;28;20274;-67
2022/07/24 09:30:07;;;;;;;3.00;2.70;;;;;;;38.64;19.88;100405.03;4971335;28;20223;-68
2022/07/24 09:32:33;;;;;;;4.43;2.90;;;;;;;38.46;19.68;100398.22;4991095;28;20262;-67
2022/07/24 09:34:59;;;;;;;4.13;2.60;;;;;;;39.09;19.53;100396.50;4975409;28;20179;-68
2022/07/24 09:37:27;;;;;;;4.35;3.13;;;;;;;35.34;22.93;100398.88;4974656;28;20332;-67
2022/07/24 09:39:58;;;;;;;3.13;2.80;;;;;;;36.19;22.32;100399.66;4976719;28;20196;-66
2022/07/24 09:42:30;;;;;;;3.40;3.13;;;;;;;37.88;20.79;100399.00;4982257;28;20325;-67
2022/07/24 09:44:58;;;;;;;3.15;2.75;;;;;;;38.82;19.92;100397.56;4976974;28;20180;-67
2022/07/24 09:47:24;;;;;;;3.85;3.45;;;;;;;38.34;19.90;100392.28;4976568;28;20188;-67
2022/07/24 09:49:55;;;;;;;4.22;3.08;;;;;;;38.30;20.20;100393.88;4976183;28;20183;-67
2022/07/24 09:52:22;;;;;;;4.40;3.20;;;;;;;36.64;21.59;100389.81;4981751;28;20227;-67
2022/07/24 09:54:50;;;;;;;4.20;2.97;;;;;;;36.92;21.95;100393.34;4976253;28;20196;-67
2022/07/24 09:57:22;;;;;;;4.60;3.05;;;;;;;39.13;20.68;100387.63;4991485;28;20180;-67
2022/07/24 09:59:59;;;;;;;4.35;3.35;;;;;;;38.84;19.31;100392.72;4975876;28;20290;-67
2022/07/24 10:02:32;;;;;;;6.70;3.10;;;;;;;36.12;22.03;100379.50;4969094;28;20236;-67
2022/07/24 10:04:59;;;;;;;5.90;3.10;;;;;;;36.69;22.12;100378.31;4975282;28;20212;-67
2022/07/24 10:07:26;;;;;;;6.47;3.60;;;;;;;37.54;21.05;100393.91;4974676;28;20216;-67
2022/07/24 10:09:55;;;;;;;5.10;3.33;;;;;;;40.39;18.52;100390.72;4975746;28;20438;-61
2022/07/24 10:12:26;;;;;;;4.15;3.55;;;;;;;40.73;18.35;100386.50;4964465;28;20309;-64
2022/07/24 10:14:54;;;;;;;3.67;3.20;;;;;;;40.98;17.73;100391.69;4987037;28;20283;-64
2022/07/24 10:17:22;;;;;;;3.78;3.30;;;;;;;40.95;17.33;100392.28;4987568;28;20272;-65
2022/07/24 10:19:50;;;;;;;4.82;3.63;;;;;;;40.00;18.21;100380.59;4982068;28;20230;-63
2022/07/24 10:22:16;;;;;;;5.20;3.75;;;;;;;41.01;18.06;100373.38;4981651;28;20227;-64
2022/07/24 10:24:57;;;;;;;8.35;3.45;;;;;;;41.29;18.47;100378.00;4973421;28;20627;-60
2022/07/24 10:27:32;;;;;;;4.05;3.47;;;;;;;40.96;17.34;100374.19;4975419;28;20176;-58
2022/07/24 10:30:09;;;;;;;5.25;3.67;;;;;;;39.33;18.77;100364.53;4972184;28;20180;-61
2022/07/24 10:32:35;;;;;;;3.40;3.15;;;;;;;36.61;21.05;100368.06;4947456;28;20344;-62
2022/07/24 10:35:06;;;;;;;4.38;3.97;;;;;;;36.67;20.98;100365.19;4972115;28;20195;-61
2022/07/24 10:37:45;;;;;;;4.25;3.47;;;;;;;37.85;20.12;100366.50;4984356;28;20271;-60
2022/07/24 10:40:47;;;;;;;4.40;3.08;;;;;;;37.24;21.50;100360.41;4964924;28;20242;-60
2022/07/24 10:43:18;;;;;;;4.57;4.13;;;;;;;38.88;20.15;100353.47;4970769;28;20262;-60
2022/07/24 10:46:06;;;;;;;4.85;4.00;;;;;;;40.32;17.53;100355.97;4975151;28;20196;-58
2022/07/24 10:48:35;;;;;;;3.58;3.28;;;;;;;41.64;17.62;100358.28;4974344;28;20279;-61
2022/07/24 10:51:08;;;;;;;4.70;3.80;;;;;;;42.51;16.45;100351.84;4983506;28;20238;-59
2022/07/24 10:53:37;;;;;;;5.50;3.33;;;;;;;40.23;17.99;100344.16;5001108;28;20262;-59
2022/07/24 10:56:14;;;;;;;6.18;4.25;;;;;;;36.08;22.18;100340.91;4983489;28;20180;-57
2022/07/24 10:58:57;;;;;;;4.35;3.95;;;;;;;34.75;24.07;100325.94;4974169;28;20175;-58
2022/07/24 11:01:29;;;;;;;4.28;3.88;;;;;;;34.22;25.43;100332.34;4964927;28;20235;-57
2022/07/24 11:03:55;;;;;;;5.30;4.45;;;;;;;33.93;26.42;100322.41;4972451;28;20925;-59
2022/07/24 11:06:44;;;;;;;4.45;4.10;;;;;;;31.86;26.85;100321.47;4989177;28;20212;-57
2022/07/24 11:09:11;;;;;;;5.30;4.80;;;;;;;31.00;28.98;100307.00;4965851;28;20671;-58
2022/07/24 11:11:41;;;;;;;4.88;4.47;;;;;;;30.70;30.05;100303.06;4981871;28;20547;-62
2022/07/24 11:14:07;;;;;;;5.32;4.45;;;;;;;31.05;29.37;100301.84;4974937;28;20184;-68
2022/07/24 11:16:33;;;;;;;7.57;4.60;;;;;;;31.23;29.17;100299.31;4975943;28;20289;-75
2022/07/24 11:19:01;;;;;;;5.88;4.55;;;;;;;31.56;29.68;100305.38;4972698;28;20211;-69
2022/07/24 11:21:35;;;;;;;5.18;4.38;;;;;;;30.62;29.83;100297.19;4966342;28;20227;-63